METAR Data
IDs: Format: Raw Decoded Include TAF

Data at: 1541 UTC 24 Aug 2019

PABA 241452Z 25030G38KT 3SM -RA BR 04/03 A2959 RMK AO2 PK WND 25043/1433 SLP005 P0000 60000 T00440028 56012 $
PABA 241352Z 25034G41KT 10SM -RA 04/02 A2959 RMK AO2 PK WND 25042/1333 SLP005 P0000 T00390017 $
PABA 241252Z 26035G40KT 10SM -RA 04/02 A2961 RMK AO2 PK WND 26040/1252 SLP012 P0000 T00390022 $
PABA 241152Z 26032G37KT 10SM -RA 04/02 A2962 RMK AO2 PK WND 26039/1142 SLP017 P0000 60000 T00390022 10039 20028 58015 $
PABA 241052Z 26030G34KT 10SM -RA 04/02 A2964 RMK AO2 PK WND 26036/1040 RAB0957 SLP022 P0000 T00390022 $
PABA 240952Z 26024G31KT 10SM 04/02 A2966 RMK AO2 PK WND 26031/0950 SLP028 T00390022 $
PABA 240852Z 26023G28KT 10SM 04/02 A2967 RMK AO2 PK WND 26028/0850 SLP032 60000 T00390017 400500022 58008 $
PABA 240752Z 28017G23KT 10SM 03/01 A2968 RMK AO2 UPE0657 SLP036 P0000 T00330011 $
PABA 240652Z 27017KT 10SM UP 03/01 A2968 RMK AO2 UPB0553E04B20E31B49RAB31E49 SLP038 P0000 T00280011 $
PABA 240552Z 30017KT 10SM 03/01 A2969 RMK AO2 SLP040 60000 T00280006 10039 20022 51006 $
PABA 240452Z 29016KT 10SM 03/00 A2969 RMK AO2 SLP039 T00280000 $
PABA 240352Z 30017KT 10SM 03/00 A2968 RMK AO2 SLP038 T00280000 $
PABA 240252Z 31019G26KT 10SM 03/01 A2967 RMK AO2 PK WND 31026/0248 SLP033 60000 T00280006 51027 $
PABA 240152Z 30018KT 8SM 03/02 A2966 RMK AO2 PK WND 30029/0109 RAE11 SLP028 P0000 T00280017 $
PABA 240052Z 30024G30KT 4SM -RA BR 03/02 A2963 RMK AO2 PK WND 29033/0045 RAB41 SLP018 P0000 T00330022 $
PABA 232352Z 28027G31KT 10SM 04/02 A2959 RMK AO2 PK WND 28036/2316 RAE31 SLP006 P0000 60000 T00390017 10039 20022 53021 $
PABA 232252Z 29027G33KT 6SM -RA BR 03/02 A2957 RMK AO2 PK WND 29038/2206 SLP999 P0000 T00280017 $
PABA 232152Z 28024G28KT 4SM -RA BR 03/01 A2955 RMK AO2 PK WND 28032/2127 SLP991 P0000 T00280011 $
PABA 232052Z 29024G30KT 7SM -RA 03/02 A2953 RMK AO2 PK WND 28031/2011 SLP985 P0000 60000 T00280017 53020 $
PABA 231952Z 28021KT 10SM -RA 04/02 A2951 RMK AO2 PK WND 28026/1936 RAE10B38 SLP977 P0000 T00390022 $
PABA 231852Z 29018KT 9SM -RA 03/03 A2949 RMK AO2 SLP973 P0000 T00330028 $
PABA 231752Z 29020KT 10SM -RA 04/03 A2947 RMK AO2 PK WND 26038/1717 RAB19 SLP965 P0000 60000 T00390028 10050 20039 55004 $
PABA 231652Z 25028G37KT 9SM 05/03 A2946 RMK AO2 PK WND 25037/1646 RAE01 SLP960 P0000 T00500028 $
PABA 231552Z 25025G28KT 10SM -RA 04/03 A2947 RMK AO2 PK WND 25030/1533 SLP964 P0000 T00440028 $
PABA 231452Z 24018G24KT 7SM -RA 04/03 A2948 RMK AO2 RAB1359 SLP970 P0000 60000 T00440028 57019 $
PABA 231352Z 24017KT 10SM 04/02 A2950 RMK AO2 RAE33 SLP976 P0000 T00440022 $
PABA 231252Z 24012KT 10SM -RA 04/03 A2952 RMK AO2 SLP982 P0000 T00390033 $
PABA 231152Z 23011KT 10SM -RA 04/03 A2954 RMK AO2 SLP989 P0000 60001 70001 T00390033 10044 20039 58013 $
PABA 231052Z 24010KT 10SM -RA 04/03 A2956 RMK AO2 RAB51 SLP994 P0000 T00390033 $
PABA 230952Z 26009KT 10SM 04/03 A2957 RMK AO2 RAB01E48 SLP999 P0000 T00440033 $
PABA 230852Z 26008KT 10SM 04/04 A2958 RMK AO2 RAE49 SLP002 P0000 60001 T00440039 400610028 56013 $
PABA 230752Z 28006KT 10SM -RA 04/04 A2959 RMK AO2 RAB00 SLP005 P0000 T00440039 $
PABA 230652Z 26006KT 10SM 04/04 A2960 RMK AO2 RAE47 SLP010 P0001 T00390039 $
PABA 230552Z 28005KT 10SM -RA 04/03 A2962 RMK AO2 RAB38 SLP015 P0000 60000 T00390033 10056 20039 58008 $
PABA 230452Z 29008KT 10SM 04/03 A2963 RMK AO2 RAE0357 SLP020 P0000 T00390033 $
PABA 230358Z 33007KT 6SM BR 04/04 A2964 RMK AO2 RAE57 P0000 $
PABA 230352Z 33006KT 2SM -RA BR 04/04 A2964 RMK AO2 WSHFT 0320 RAB22 SLP022 P0000 T00440039 $